Metar z połowy godziny Komunikat METAR ze strony awiacja.imgw.pl Metar G30 EPMI METAR EPMI 230800Z 10010KT 4500 BR BKN010 M08/M10 Q1007 RMK M076 085 7/7=